aviador You're here:

EIKN Decoded Metar

CONNAUGHT in IRELAND
Report Time2017-08-24 08:30:00
UTC Time2017-08-24 08:52:54
Flight Rules lifr LIFR
Wind190° at 08 kt
W.Decomp.*RWY 27: 2.2 kt HW 7.7 kt LCW
W.Rank190° ranks 4
Current wind is below 190° avg. (9.5)
Visibility9999 m
Phenomena:Light Rain
Clouds:Broken 004 Hf
Broken 028 Hf
Ceiling400 ft
Temp12°C (ISA -3)
Dew Point12°C (100% RH)
AAT9.7°C
QNH1011 hPa
Density Alt157 ft
Elevation210 ft
Report Wrong Elevation
Raw Report
METAR EIKN 240830Z 19008KT 150V230 9999 -RA BKN004 BKN028 12/12 Q1011
NOSIG=

Extra information for EIKN:More info

Metar Taf Metar & Taf Last 4 Metars F.Rules Stats Wind Profile Meteogram Temp Stats Airport Information Weather charts Add Link Nearby VenuesMetar ALERT Operation Metar Decoded Social comments